createdAt,value
2019-03-18T00:00:46.133Z,0
2019-03-18T00:03:52.045Z,0
2019-03-18T00:06:57.919Z,0
2019-03-18T00:10:03.913Z,0
2019-03-18T00:13:09.794Z,0
2019-03-18T00:16:15.847Z,0
2019-03-18T00:19:21.771Z,0
2019-03-18T00:22:27.877Z,0
2019-03-18T00:25:36.599Z,0
2019-03-18T00:28:42.536Z,0
2019-03-18T00:31:48.706Z,0
2019-03-18T00:34:54.706Z,0
2019-03-18T00:38:03.381Z,0
2019-03-18T00:41:09.340Z,0
2019-03-18T00:44:15.303Z,0
2019-03-18T00:47:21.259Z,0
2019-03-18T00:50:27.218Z,0
2019-03-18T00:53:33.096Z,0
2019-03-18T00:56:39.157Z,0
2019-03-18T00:59:45.067Z,0
2019-03-18T01:02:52.904Z,0
2019-03-18T01:05:58.971Z,0
2019-03-18T01:09:04.846Z,0
2019-03-18T01:12:10.776Z,0
2019-03-18T01:15:31.229Z,0
2019-03-18T01:18:37.248Z,0
2019-03-18T01:21:43.205Z,0
2019-03-18T01:24:49.161Z,0
2019-03-18T01:27:55.114Z,0
2019-03-18T01:31:01.178Z,0
2019-03-18T01:34:07.138Z,0
2019-03-18T01:37:13.098Z,0
2019-03-18T01:40:20.158Z,0
2019-03-18T01:43:25.990Z,0
2019-03-18T01:46:32.098Z,0
2019-03-18T01:49:37.976Z,0
2019-03-18T01:52:44.017Z,0
2019-03-18T01:55:52.927Z,0
2019-03-18T01:58:59.019Z,0
2019-03-18T02:02:05.054Z,0
2019-03-18T02:05:10.928Z,0
2019-03-18T02:08:16.884Z,0
2019-03-18T02:11:22.849Z,0
2019-03-18T02:14:28.804Z,0
2019-03-18T02:17:34.768Z,0
2019-03-18T02:20:40.840Z,0
2019-03-18T02:23:46.788Z,0
2019-03-18T02:26:52.844Z,0
2019-03-18T02:29:58.854Z,0
2019-03-18T02:33:05.073Z,0
2019-03-18T02:36:11.047Z,0
2019-03-18T02:39:17.174Z,0
2019-03-18T02:42:23.270Z,0
2019-03-18T02:45:29.136Z,0
2019-03-18T02:48:35.075Z,0
2019-03-18T02:51:41.147Z,0
2019-03-18T02:54:47.193Z,0
2019-03-18T02:57:53.167Z,0
2019-03-18T03:00:59.116Z,0
2019-03-18T03:04:05.174Z,0
2019-03-18T03:07:11.136Z,0
2019-03-18T03:10:17.386Z,0
2019-03-18T03:13:23.370Z,0
2019-03-18T03:16:30.656Z,0
2019-03-18T03:19:40.209Z,0
2019-03-18T03:22:46.359Z,0
2019-03-18T03:25:52.372Z,0
2019-03-18T03:28:58.379Z,0
2019-03-18T03:32:04.753Z,0
2019-03-18T03:35:10.818Z,0
2019-03-18T03:38:16.991Z,0
2019-03-18T03:41:23.050Z,0
2019-03-18T03:44:28.999Z,0
2019-03-18T03:47:34.966Z,0
2019-03-18T03:50:41.022Z,0
2019-03-18T03:53:47.091Z,0
2019-03-18T03:56:53.236Z,188.6
2019-03-18T03:59:59.205Z,231.8
2019-03-18T04:03:05.480Z,239
2019-03-18T04:06:11.427Z,241.9
2019-03-18T04:09:17.499Z,243.4
2019-03-18T04:12:23.666Z,244.8
2019-03-18T04:15:29.618Z,244.8
2019-03-18T04:18:35.677Z,244.8
2019-03-18T04:21:41.844Z,244.8
2019-03-18T04:24:47.904Z,244.8
2019-03-18T04:27:53.865Z,246.2
2019-03-18T04:30:59.771Z,246.2
2019-03-18T04:34:05.785Z,246.2
2019-03-18T04:37:11.854Z,246.2
2019-03-18T04:40:17.802Z,249.1
2019-03-18T04:43:23.762Z,249.1
2019-03-18T04:46:29.756Z,250.6
2019-03-18T04:49:35.682Z,253.4
2019-03-18T04:52:41.648Z,256.3
2019-03-18T04:55:47.598Z,260.6
2019-03-18T04:58:53.467Z,267.8
2019-03-18T05:01:59.615Z,270.7
2019-03-18T05:05:05.681Z,272.2
2019-03-18T05:08:11.565Z,279.4
2019-03-18T05:11:17.598Z,286.6
2019-03-18T05:14:23.561Z,292.3
2019-03-18T05:17:30.224Z,299.5
2019-03-18T05:20:36.197Z,299.5
2019-03-18T05:23:42.260Z,303.8
2019-03-18T05:26:48.328Z,315.4
2019-03-18T05:29:54.190Z,319.7
2019-03-18T05:33:00.189Z,315.4
2019-03-18T05:36:06.201Z,286.6
2019-03-18T05:39:12.257Z,303.8
2019-03-18T05:42:18.133Z,296.6
2019-03-18T05:45:26.725Z,299.5
2019-03-18T05:48:32.603Z,295.2
2019-03-18T05:51:38.597Z,298.1
2019-03-18T05:54:44.504Z,306.7
2019-03-18T05:57:52.941Z,315.4
2019-03-18T06:00:58.943Z,308.2
2019-03-18T06:04:04.907Z,303.8
2019-03-18T06:07:10.771Z,313.9
2019-03-18T06:10:16.763Z,309.6
2019-03-18T06:13:22.730Z,309.6
2019-03-18T06:16:28.799Z,312.5
2019-03-18T06:19:34.746Z,311
2019-03-18T06:22:40.637Z,308.2
2019-03-18T06:25:46.871Z,311
2019-03-18T06:28:52.830Z,311
2019-03-18T06:31:58.831Z,309.6
2019-03-18T06:35:04.947Z,301
2019-03-18T06:38:11.008Z,302.4
2019-03-18T06:41:16.967Z,303.8
2019-03-18T06:44:22.929Z,303.8
2019-03-18T06:47:28.960Z,292.3
2019-03-18T06:50:34.816Z,290.9
2019-03-18T06:53:43.457Z,290.9
2019-03-18T06:56:49.433Z,269.3
2019-03-18T06:59:55.471Z,283.7
2019-03-18T07:03:01.646Z,282.2
2019-03-18T07:06:07.617Z,282.2
2019-03-18T07:09:13.736Z,283.7
2019-03-18T07:12:19.769Z,282.2
2019-03-18T07:15:25.900Z,279.4
2019-03-18T07:18:31.859Z,283.7
2019-03-18T07:21:37.941Z,277.9
2019-03-18T07:24:44.046Z,280.8
2019-03-18T07:27:50.044Z,280.8
2019-03-18T07:30:56.107Z,280.8
2019-03-18T07:34:02.991Z,279.4
2019-03-18T07:37:08.925Z,276.5
2019-03-18T07:40:15.008Z,275
2019-03-18T07:43:21.054Z,272.2
2019-03-18T07:46:27.441Z,276.5
2019-03-18T07:49:33.488Z,267.8
2019-03-18T07:52:39.467Z,275
2019-03-18T07:55:45.478Z,272.2
2019-03-18T07:58:51.582Z,267.8
2019-03-18T08:01:58.584Z,262.1
2019-03-18T08:05:04.731Z,269.3
2019-03-18T08:08:10.611Z,263.5
2019-03-18T08:11:16.755Z,254.9
2019-03-18T08:14:22.688Z,241.9
2019-03-18T08:17:28.678Z,266.4
2019-03-18T08:20:34.842Z,263.5
2019-03-18T08:23:40.798Z,262.1
2019-03-18T08:26:46.674Z,259.2
2019-03-18T08:29:52.619Z,257.8
2019-03-18T08:32:58.682Z,226.1
2019-03-18T08:36:04.640Z,260.6
2019-03-18T08:39:10.642Z,257.8
2019-03-18T08:42:16.764Z,254.9
2019-03-18T08:45:22.727Z,257.8
2019-03-18T08:48:28.799Z,253.4
2019-03-18T08:51:34.964Z,253.4
2019-03-18T08:54:40.825Z,247.7
2019-03-18T08:57:46.994Z,254.9
2019-03-18T09:00:53.024Z,254.9
2019-03-18T09:03:58.902Z,254.9
2019-03-18T09:07:04.966Z,257.8
2019-03-18T09:10:11.094Z,257.8
2019-03-18T09:13:16.975Z,257.8
2019-03-18T09:16:23.255Z,253.4
2019-03-18T09:19:29.138Z,259.2
2019-03-18T09:22:35.172Z,254.9
2019-03-18T09:25:41.398Z,239
2019-03-18T09:28:47.408Z,252
2019-03-18T09:31:53.442Z,256.3
2019-03-18T09:34:59.504Z,257.8
2019-03-18T09:38:05.666Z,257.8
2019-03-18T09:41:11.942Z,260.6
2019-03-18T09:44:17.818Z,257.8
2019-03-18T09:47:23.869Z,260.6
2019-03-18T09:50:29.818Z,256.3
2019-03-18T09:53:38.746Z,257.8
2019-03-18T09:56:44.805Z,259.2
2019-03-18T09:59:53.554Z,254.9
2019-03-18T10:02:59.484Z,247.7
2019-03-18T10:06:08.191Z,257.8
2019-03-18T10:09:14.169Z,254.9
2019-03-18T10:12:20.083Z,256.3
2019-03-18T10:15:25.994Z,254.9
2019-03-18T10:18:31.945Z,256.3
2019-03-18T10:21:37.911Z,250.6
2019-03-18T10:24:43.844Z,256.3
2019-03-18T10:27:49.861Z,260.6
2019-03-18T10:30:58.481Z,257.8
2019-03-18T10:34:04.508Z,263.5
2019-03-18T10:37:10.468Z,260.6
2019-03-18T10:40:16.432Z,262.1
2019-03-18T10:43:22.316Z,247.7
2019-03-18T10:46:29.563Z,260.6
2019-03-18T10:49:48.539Z,262.1
2019-03-18T10:52:54.831Z,259.2
2019-03-18T10:56:11.115Z,259.2
2019-03-18T10:59:17.172Z,260.6
2019-03-18T11:02:23.150Z,260.6
2019-03-18T11:05:29.095Z,259.2
2019-03-18T11:08:35.151Z,260.6
2019-03-18T11:11:41.114Z,260.6
2019-03-18T11:14:47.071Z,254.9
2019-03-18T11:17:52.954Z,247.7
2019-03-18T11:20:58.885Z,241.9
2019-03-18T11:24:04.863Z,253.4
2019-03-18T11:27:10.805Z,252
2019-03-18T11:30:16.873Z,257.8
2019-03-18T11:33:23.033Z,263.5
2019-03-18T11:36:31.528Z,263.5
2019-03-18T11:39:37.617Z,262.1
2019-03-18T11:42:44.717Z,263.5
2019-03-18T11:45:50.872Z,263.5
2019-03-18T11:48:56.812Z,263.5
2019-03-18T11:52:02.885Z,263.5
2019-03-18T11:55:09.139Z,263.5
2019-03-18T11:58:15.165Z,265
2019-03-18T12:01:22.198Z,263.5
2019-03-18T12:04:28.163Z,265
2019-03-18T12:07:36.986Z,265
2019-03-18T12:10:42.941Z,252
2019-03-18T12:13:49.001Z,266.4
2019-03-18T12:16:55.067Z,267.8
2019-03-18T12:20:01.079Z,267.8
2019-03-18T12:23:07.167Z,267.8
2019-03-18T12:26:13.146Z,266.4
2019-03-18T12:29:19.308Z,267.8
2019-03-18T12:32:25.368Z,266.4
2019-03-18T12:35:31.340Z,266.4
2019-03-18T12:38:37.408Z,266.4
2019-03-18T12:41:43.672Z,267.8
2019-03-18T12:44:49.626Z,267.8
2019-03-18T12:47:55.589Z,265
2019-03-18T12:51:02.653Z,266.4
2019-03-18T12:54:08.635Z,262.1
2019-03-18T12:57:14.633Z,267.8
2019-03-18T13:00:20.656Z,247.7
2019-03-18T13:03:26.726Z,267.8
2019-03-18T13:06:36.050Z,267.8
2019-03-18T13:09:42.015Z,267.8
2019-03-18T13:12:48.092Z,267.8
2019-03-18T13:15:53.976Z,267.8
2019-03-18T13:18:59.959Z,266.4
2019-03-18T13:22:05.998Z,267.8
2019-03-18T13:25:12.007Z,267.8
2019-03-18T13:28:17.998Z,267.8
2019-03-18T13:31:23.906Z,266.4
2019-03-18T13:34:29.886Z,266.4
2019-03-18T13:37:35.959Z,263.5
2019-03-18T13:40:42.142Z,260.6
2019-03-18T13:43:51.591Z,260.6
2019-03-18T13:46:57.697Z,263.5
2019-03-18T13:50:04.118Z,276.5
2019-03-18T13:53:10.185Z,273.6
2019-03-18T13:56:16.751Z,270.7
2019-03-18T13:59:23.702Z,275
2019-03-18T14:02:29.816Z,273.6
2019-03-18T14:05:35.711Z,272.2
2019-03-18T14:08:42.099Z,272.2
2019-03-18T14:11:49.168Z,273.6
2019-03-18T14:14:55.587Z,256.3
2019-03-18T14:18:01.869Z,269.3
2019-03-18T14:21:07.859Z,267.8
2019-03-18T14:24:13.862Z,267.8
2019-03-18T14:27:20.009Z,266.4
2019-03-18T14:30:26.200Z,266.4
2019-03-18T14:33:32.138Z,265
2019-03-18T14:36:38.100Z,265
2019-03-18T14:39:45.052Z,265
2019-03-18T14:42:51.035Z,265
2019-03-18T14:45:57.210Z,265
2019-03-18T14:49:03.167Z,265
2019-03-18T14:52:09.067Z,263.5
2019-03-18T14:55:14.983Z,263.5
2019-03-18T14:58:20.941Z,263.5
2019-03-18T15:01:26.995Z,263.5
2019-03-18T15:04:32.965Z,263.5
2019-03-18T15:07:38.926Z,262.1
2019-03-18T15:10:45.079Z,259.2
2019-03-18T15:13:53.855Z,260.6
2019-03-18T15:16:59.927Z,259.2
2019-03-18T15:20:06.139Z,257.8
2019-03-18T15:23:12.101Z,257.8
2019-03-18T15:26:18.035Z,257.8
2019-03-18T15:29:23.930Z,257.8
2019-03-18T15:32:29.973Z,256.3
2019-03-18T15:35:36.143Z,256.3
2019-03-18T15:38:44.915Z,256.3
2019-03-18T15:41:50.770Z,254.9
2019-03-18T15:44:56.780Z,256.3
2019-03-18T15:48:08.824Z,256.3
2019-03-18T15:51:14.700Z,254.9
2019-03-18T15:54:20.748Z,254.9
2019-03-18T15:57:32.594Z,256.3
2019-03-18T16:00:38.601Z,256.3
2019-03-18T16:03:44.623Z,254.9
2019-03-18T16:06:50.502Z,254.9
2019-03-18T16:09:56.555Z,253.4
2019-03-18T16:13:02.554Z,253.4
2019-03-18T16:16:08.563Z,252
2019-03-18T16:19:14.518Z,253.4
2019-03-18T16:22:26.731Z,252
2019-03-18T16:25:32.790Z,252
2019-03-18T16:28:38.748Z,250.6
2019-03-18T16:31:44.705Z,250.6
2019-03-18T16:34:50.742Z,249.1
2019-03-18T16:37:56.735Z,249.1
2019-03-18T16:41:02.686Z,249.1
2019-03-18T16:44:08.640Z,249.1
2019-03-18T16:47:14.682Z,250.6
2019-03-18T16:50:20.668Z,249.1
2019-03-18T16:53:26.732Z,249.1
2019-03-18T16:56:32.668Z,249.1
2019-03-18T16:59:38.652Z,250.6
2019-03-18T17:02:44.815Z,250.6
2019-03-18T17:05:50.792Z,250.6
2019-03-18T17:08:56.831Z,249.1
2019-03-18T17:12:02.836Z,249.1
2019-03-18T17:15:08.746Z,250.6
2019-03-18T17:18:14.684Z,250.6
2019-03-18T17:21:26.008Z,249.1
2019-03-18T17:24:32.049Z,249.1
2019-03-18T17:27:38.019Z,250.6
2019-03-18T17:30:43.960Z,250.6
2019-03-18T17:33:49.928Z,250.6
2019-03-18T17:36:55.897Z,250.6
2019-03-18T17:40:01.957Z,250.6
2019-03-18T17:43:07.914Z,249.1
2019-03-18T17:46:14.088Z,250.6
2019-03-18T17:49:20.018Z,250.6
2019-03-18T17:52:26.027Z,250.6
2019-03-18T17:55:32.038Z,250.6
2019-03-18T17:58:38.030Z,252
2019-03-18T18:01:44.075Z,252
2019-03-18T18:05:02.052Z,252
2019-03-18T18:08:09.217Z,252
2019-03-18T18:11:15.089Z,252
2019-03-18T18:14:21.035Z,252
2019-03-18T18:17:27.062Z,252
2019-03-18T18:20:33.060Z,252
2019-03-18T18:23:42.268Z,253.4
2019-03-18T18:26:48.146Z,252
2019-03-18T18:29:54.110Z,1.7
2019-03-18T18:33:00.061Z,1.7
2019-03-18T18:36:06.128Z,1.7
2019-03-18T18:39:12.090Z,1.7
2019-03-18T18:42:18.048Z,1.7
2019-03-18T18:45:24.359Z,1.7
2019-03-18T18:48:30.371Z,1.7
2019-03-18T18:51:36.380Z,1.7
2019-03-18T18:54:42.392Z,1.7
2019-03-18T18:57:48.448Z,1.7
2019-03-18T19:00:54.428Z,1.7
2019-03-18T19:04:00.369Z,1.7
2019-03-18T19:07:06.335Z,1.7
2019-03-18T19:10:12.293Z,1.7
2019-03-18T19:13:20.818Z,1.7
2019-03-18T19:16:26.766Z,1.7
2019-03-18T19:19:35.142Z,1.7
2019-03-18T19:22:41.352Z,1.7
2019-03-18T19:25:47.248Z,1.7
2019-03-18T19:28:53.267Z,1.7
2019-03-18T19:31:59.232Z,1.7
2019-03-18T19:35:07.346Z,1.7
2019-03-18T19:38:13.305Z,1.7
2019-03-18T19:41:19.376Z,1.7
2019-03-18T19:44:25.418Z,1.7
2019-03-18T19:47:31.390Z,1.7
2019-03-18T19:50:37.333Z,1.7
2019-03-18T19:53:52.211Z,1.7
2019-03-18T19:56:58.167Z,1.7
2019-03-18T20:00:04.127Z,1.7
2019-03-18T20:03:10.091Z,1.7
2019-03-18T20:06:16.150Z,1.7
2019-03-18T20:09:22.847Z,1.7
2019-03-18T20:12:29.077Z,1.7
2019-03-18T20:15:35.065Z,1.7
2019-03-18T20:18:41.116Z,1.7
2019-03-18T20:21:47.086Z,1.7
2019-03-18T20:24:53.150Z,1.7
2019-03-18T20:27:59.109Z,1.7
2019-03-18T20:31:05.061Z,1.7
2019-03-18T20:34:11.133Z,1.7
2019-03-18T20:37:17.179Z,1.7
2019-03-18T20:40:23.054Z,1.7
2019-03-18T20:43:31.961Z,1.7
2019-03-18T20:46:40.646Z,1.7
2019-03-18T20:49:46.518Z,1.7
2019-03-18T20:52:52.502Z,1.7
2019-03-18T20:55:58.376Z,1.7
2019-03-18T20:59:04.424Z,1.7
2019-03-18T21:02:10.297Z,1.7
2019-03-18T21:05:16.324Z,1.7
2019-03-18T21:08:22.311Z,1.7
2019-03-18T21:11:28.184Z,2.4
2019-03-18T21:14:34.117Z,0.9
2019-03-18T21:17:40.057Z,0
2019-03-18T21:20:45.950Z,0
2019-03-18T21:23:54.229Z,0
2019-03-18T21:27:00.207Z,0
2019-03-18T21:30:06.117Z,0
2019-03-18T21:33:12.662Z,0
2019-03-18T21:36:40.768Z,0
2019-03-18T21:39:46.675Z,0
2019-03-18T21:42:52.650Z,0
2019-03-18T21:45:58.577Z,0
2019-03-18T21:49:04.569Z,0
2019-03-18T21:52:10.480Z,0
2019-03-18T21:55:16.688Z,0
2019-03-18T21:58:22.749Z,0
2019-03-18T22:01:28.706Z,0
2019-03-18T22:04:34.663Z,0
2019-03-18T22:07:40.619Z,0
2019-03-18T22:10:46.578Z,0
2019-03-18T22:13:52.564Z,0
2019-03-18T22:16:58.599Z,0
2019-03-18T22:20:04.562Z,0
2019-03-18T22:23:10.523Z,0
2019-03-18T22:26:16.395Z,0
2019-03-18T22:29:22.346Z,0
2019-03-18T22:32:28.408Z,0
2019-03-18T22:35:34.315Z,0
2019-03-18T22:38:40.316Z,0
2019-03-18T22:41:46.537Z,0
2019-03-18T22:44:52.413Z,0
2019-03-18T22:47:58.401Z,0
2019-03-18T22:51:04.280Z,0
2019-03-18T22:54:10.233Z,0
2019-03-18T22:57:16.202Z,0
2019-03-18T23:00:22.290Z,0
2019-03-18T23:03:28.361Z,0
2019-03-18T23:06:34.364Z,0
2019-03-18T23:09:40.334Z,0
2019-03-18T23:12:46.287Z,0
2019-03-18T23:15:52.257Z,0
2019-03-18T23:18:58.214Z,0
2019-03-18T23:22:04.265Z,0
2019-03-18T23:25:13.092Z,0
2019-03-18T23:28:18.963Z,0
2019-03-18T23:31:24.911Z,0
2019-03-18T23:34:30.776Z,0
2019-03-18T23:37:36.729Z,0
2019-03-18T23:40:42.797Z,0
2019-03-18T23:43:48.660Z,0
2019-03-18T23:46:54.610Z,0
2019-03-18T23:50:00.559Z,0
2019-03-18T23:53:06.724Z,0
2019-03-18T23:56:12.597Z,0
2019-03-18T23:59:18.703Z,0
